MDT,Max TemperatureF,Mean TemperatureF,Min TemperatureF,Max Dew PointF,MeanDew PointF,Min DewpointF,Max Humidity, Mean Humidity, Min Humidity, Max Sea Level PressureIn, Mean Sea Level PressureIn, Min Sea Level PressureIn, Max VisibilityMiles, Mean VisibilityMiles, Min VisibilityMiles, Max Wind SpeedMPH, Mean Wind SpeedMPH, Max Gust SpeedMPH,PrecipitationIn, CloudCover, Events, WindDirDegrees
2012-9-1,89,74,59,58,50,44,78,50,22,29.82,29.73,29.68,,,,32,6,39,0.03,,,222
2012-9-2,84,66,48,54,29,15,78,43,8,29.96,29.89,29.82,,,,21,9,30,0.00,,,280
2012-9-3,82,64,45,30,26,24,45,29,13,29.98,29.93,29.90,,,,21,8,25,0.00,,,288
2012-9-4,76,59,42,41,32,25,58,42,25,30.12,30.01,29.91,,,,36,9,43,0.00,,,303
2012-9-5,83,62,40,36,32,28,67,41,15,30.13,29.97,29.84,,,,23,8,28,0.00,,,274
2012-9-6,72,58,44,44,41,36,59,45,31,30.21,30.07,29.95,,,,17,9,23,0.00,,,348
2012-9-7,79,58,37,41,36,31,85,53,21,30.27,30.23,30.18,,,,15,5,23,0.00,,,275
2012-9-8,79,61,42,47,38,31,62,45,28,30.29,30.20,30.09,,,,12,6,16,0.00,,,34
2012-9-9,94,73,52,37,29,21,51,29,7,30.07,29.82,29.60,,,,20,6,24,0.00,,,173
2012-9-10,90,73,56,36,31,18,40,25,9,29.76,29.65,29.57,,,,29,13,36,0.00,,,294
2012-9-11,71,53,35,31,21,11,53,32,10,30.16,29.98,29.81,,,,29,11,35,0.00,,,300
2012-9-12,68,51,33,20,17,14,47,31,15,30.34,30.29,30.18,,,,20,6,25,0.00,,,299
2012-9-13,78,55,31,32,24,14,44,30,16,30.37,30.34,30.32,,,,20,7,28,0.00,,,314
2012-9-14,89,68,46,33,27,21,50,30,9,30.34,30.13,29.97,,,,20,8,28,0.00,,,172
2012-9-15,85,66,46,32,24,20,35,23,11,30.03,29.99,29.96,,,,14,7,17,0.00,,,321
2012-9-16,66,60,53,39,33,27,47,37,27,30.25,30.16,30.00,,,,22,9,29,0.00,,,48
2012-9-17,70,58,46,32,30,27,46,35,23,30.25,30.15,30.01,,,,12,3,18,0.00,,,116
2012-9-18,87,64,40,32,30,26,55,34,12,29.99,29.90,29.78,,,,22,10,28,0.00,,,293
2012-9-19,72,58,44,33,31,28,58,39,20,30.19,30.09,29.94,,,,16,8,26,0.00,,,325
2012-9-20,76,59,41,33,31,28,57,38,19,30.09,30.05,30.01,,,,28,10,32,0.00,,,303
2012-9-21,76,59,42,36,32,27,67,44,21,30.17,30.11,30.06,,,,16,7,22,0.00,,,326
2012-9-22,77,56,34,34,30,25,64,43,21,30.25,30.18,30.12,,,,16,5,20,0.00,,,107
2012-9-23,82,60,37,30,28,24,54,35,15,30.16,30.10,30.04,,,,14,4,18,0.00,,,111
2012-9-24,84,60,35,30,26,21,56,35,14,30.05,29.96,29.88,,,,9,2,12,0.00,,,320
2012-9-25,83,59,35,31,27,23,59,37,14,29.94,29.90,29.85,,,,9,3,,0.00,,,239
2012-9-26,71,56,41,42,34,24,66,49,32,30.09,30.02,29.92,,,,16,6,21,0.00,,,308
2012-9-27,75,60,44,47,42,35,92,62,31,30.15,30.11,30.07,,,,12,5,21,0.00,,,322
2012-9-28,83,59,35,45,36,29,76,48,20,30.09,29.99,29.86,,,,20,5,25,0.00,,,171
2012-9-29,83,61,39,39,34,30,65,41,17,30.00,29.92,29.85,,,,24,8,29,0.00,,,285
2012-9-30,77,58,39,44,37,31,76,50,24,30.30,30.11,30.00,,,,25,8,31,0.00,,,316